Time;durP1;ratioP1;P1;durP2;ratioP2;P2;SDS_P1;SDS_P2;PMS_P1;PMS_P2;Temp;Humidity;BMP_temperature;BMP_pressure;BME280_temperature;BME280_humidity;BME280_pressure;Samples;Min_cycle;Max_cycle;Signal;HPM_P1;HPM_P2
2023/06/25 00:01:54;;;;;;;15.00;7.40;;;;;;;18.66;100.00;100495.22;4972238;28;20215;-66
2023/06/25 00:04:21;;;;;;;8.17;7.37;;;;;;;18.66;100.00;100494.41;4996388;28;20186;-66
2023/06/25 00:06:46;;;;;;;8.67;7.80;;;;;;;18.60;100.00;100500.13;4992044;28;20180;-66
2023/06/25 00:09:12;;;;;;;8.23;7.40;;;;;;;18.55;100.00;100487.47;4992795;28;20190;-65
2023/06/25 00:11:37;;;;;;;9.50;8.40;;;;;;;18.51;100.00;100492.09;5001194;28;20645;-66
2023/06/25 00:14:03;;;;;;;9.77;8.50;;;;;;;18.47;100.00;100480.28;5015226;28;20186;-67
2023/06/25 00:16:29;;;;;;;9.77;8.77;;;;;;;18.45;100.00;100476.97;5012463;28;20198;-67
2023/06/25 00:18:54;;;;;;;9.47;8.63;;;;;;;18.43;100.00;100483.28;5010828;28;20191;-67
2023/06/25 00:21:20;;;;;;;10.97;7.37;;;;;;;18.39;100.00;100480.94;5012441;28;20232;-66
2023/06/25 00:23:45;;;;;;;8.80;7.90;;;;;;;18.32;100.00;100479.78;5017398;28;20183;-67
2023/06/25 00:26:10;;;;;;;9.20;8.17;;;;;;;18.34;100.00;100484.84;5011385;28;20613;-66
2023/06/25 00:28:37;;;;;;;9.10;8.30;;;;;;;18.31;100.00;100475.50;5010412;28;20187;-67
2023/06/25 00:31:02;;;;;;;9.50;8.60;;;;;;;18.30;100.00;100473.03;5009192;28;20731;-66
2023/06/25 00:33:28;;;;;;;9.63;8.80;;;;;;;18.28;100.00;100469.72;5018350;28;20195;-68
2023/06/25 00:35:56;;;;;;;10.07;9.03;;;;;;;18.25;100.00;100468.19;5011414;28;20178;-67
2023/06/25 00:38:21;;;;;;;9.60;8.73;;;;;;;18.28;100.00;100473.13;5010117;28;20611;-67
2023/06/25 00:40:47;;;;;;;9.30;8.50;;;;;;;18.21;100.00;100464.19;5006904;28;20256;-66
2023/06/25 00:43:15;;;;;;;9.03;7.67;;;;;;;18.17;100.00;100463.63;5018653;28;20182;-67
2023/06/25 00:45:40;;;;;;;9.57;7.93;;;;;;;18.17;100.00;100465.38;4987585;28;20182;-66
2023/06/25 00:48:05;;;;;;;9.60;8.70;;;;;;;18.16;100.00;100461.97;5008819;28;20540;-67
2023/06/25 00:50:30;;;;;;;9.47;8.47;;;;;;;18.11;100.00;100464.09;5003963;28;20230;-65
2023/06/25 00:52:57;;;;;;;9.67;8.77;;;;;;;18.09;100.00;100468.59;5020669;28;20635;-66
2023/06/25 00:55:22;;;;;;;9.13;8.23;;;;;;;18.04;100.00;100468.16;4980894;28;20220;-65
2023/06/25 00:57:47;;;;;;;9.33;8.30;;;;;;;18.02;100.00;100462.22;5004258;28;20237;-66
2023/06/25 01:00:14;;;;;;;9.07;8.17;;;;;;;17.94;100.00;100468.06;5001644;28;20205;-66
2023/06/25 01:03:24;;;;;;;9.03;8.20;;;;;;;17.83;100.00;100462.84;5014433;28;20171;-66
2023/06/25 01:05:52;;;;;;;9.23;8.43;;;;;;;17.89;100.00;100468.38;4988726;28;20172;-66
2023/06/25 01:08:20;;;;;;;9.93;8.13;;;;;;;17.85;100.00;100472.19;5010090;28;20183;-65
2023/06/25 01:10:45;;;;;;;9.43;8.43;;;;;;;17.83;100.00;100462.84;5003686;28;20296;-65
2023/06/25 01:13:10;;;;;;;9.23;8.33;;;;;;;17.82;100.00;100463.81;5002126;28;20191;-65
2023/06/25 01:15:36;;;;;;;12.50;9.37;;;;;;;17.78;100.00;100454.59;4995493;28;20198;-65
2023/06/25 01:18:02;;;;;;;9.70;8.80;;;;;;;17.71;100.00;100460.28;5013184;28;20739;-65
2023/06/25 01:20:28;;;;;;;9.00;8.20;;;;;;;17.72;100.00;100463.69;5007508;28;20233;-66
2023/06/25 01:22:54;;;;;;;9.40;8.50;;;;;;;17.68;100.00;100457.09;4997481;28;20183;-65
2023/06/25 01:25:20;;;;;;;9.63;8.60;;;;;;;17.63;100.00;100465.25;4996078;28;20172;-65
2023/06/25 01:27:45;;;;;;;9.90;9.00;;;;;;;17.62;100.00;100457.56;4998909;28;20367;-65
2023/06/25 01:30:11;;;;;;;9.97;8.97;;;;;;;17.56;100.00;100453.66;4989551;28;20285;-65
2023/06/25 01:32:41;;;;;;;10.20;8.80;;;;;;;17.51;100.00;100458.41;5013271;28;20249;-65
2023/06/25 01:35:07;;;;;;;8.73;7.93;;;;;;;17.48;100.00;100458.66;4999915;28;20210;-65
2023/06/25 01:37:32;;;;;;;10.60;8.73;;;;;;;17.46;100.00;100447.53;4999243;28;20199;-65
2023/06/25 01:39:57;;;;;;;9.23;8.33;;;;;;;17.47;100.00;100449.19;4999729;28;20187;-65
2023/06/25 01:42:23;;;;;;;9.27;8.33;;;;;;;17.40;100.00;100446.22;5003668;28;20325;-65
2023/06/25 01:44:48;;;;;;;9.77;8.87;;;;;;;17.40;100.00;100452.28;4997982;28;20546;-65
2023/06/25 01:47:13;;;;;;;8.50;7.47;;;;;;;17.32;100.00;100441.63;4997369;28;20241;-65
2023/06/25 01:49:39;;;;;;;9.63;8.30;;;;;;;17.29;100.00;100447.09;4998344;28;20190;-65
2023/06/25 01:52:05;;;;;;;9.07;8.27;;;;;;;17.29;100.00;100447.09;5004752;28;20234;-65
2023/06/25 01:54:30;;;;;;;9.03;8.13;;;;;;;17.24;100.00;100439.63;4999681;28;20238;-66
2023/06/25 01:56:56;;;;;;;9.00;8.17;;;;;;;17.21;100.00;100449.44;4998998;28;20199;-66
2023/06/25 01:59:21;;;;;;;10.33;9.33;;;;;;;17.23;100.00;100442.38;4999642;28;20186;-66
2023/06/25 02:01:46;;;;;;;9.83;8.50;;;;;;;17.23;100.00;100435.38;5001647;28;20249;-65
2023/06/25 02:04:12;;;;;;;9.37;8.53;;;;;;;17.20;100.00;100437.38;4999698;28;20627;-67
2023/06/25 02:06:37;;;;;;;9.33;8.53;;;;;;;17.17;100.00;100442.84;4998239;28;20179;-65
2023/06/25 02:09:03;;;;;;;9.13;8.23;;;;;;;17.13;100.00;100439.66;4998326;28;20245;-65
2023/06/25 02:11:28;;;;;;;10.43;9.40;;;;;;;17.10;100.00;100437.28;4989834;28;20221;-65
2023/06/25 02:13:53;;;;;;;9.70;8.80;;;;;;;17.05;100.00;100431.59;5002886;28;20203;-65
2023/06/25 02:16:19;;;;;;;8.97;8.07;;;;;;;17.03;100.00;100431.72;4997835;28;20203;-65
2023/06/25 02:18:44;;;;;;;9.53;8.63;;;;;;;17.03;100.00;100431.72;4998555;28;20193;-66
2023/06/25 02:21:09;;;;;;;10.00;9.10;;;;;;;17.06;100.00;100435.84;4996668;28;20226;-66
2023/06/25 02:23:34;;;;;;;9.47;8.47;;;;;;;17.04;100.00;100432.53;5004834;28;20215;-66
2023/06/25 02:26:00;;;;;;;9.00;8.10;;;;;;;16.99;100.00;100427.69;4997338;28;20250;-65
2023/06/25 02:28:25;;;;;;;10.53;9.20;;;;;;;16.96;100.00;100427.13;4998059;28;20182;-65
2023/06/25 02:30:50;;;;;;;10.33;8.93;;;;;;;16.96;100.00;100425.34;4991718;28;20729;-66
2023/06/25 02:33:16;;;;;;;9.03;8.23;;;;;;;16.91;100.00;100424.84;5005078;28;20187;-66
2023/06/25 02:35:41;;;;;;;9.27;8.33;;;;;;;16.90;100.00;100426.59;4996734;28;20187;-66
2023/06/25 02:38:07;;;;;;;12.13;9.00;;;;;;;16.90;100.00;100430.97;4996062;28;20195;-66
2023/06/25 02:40:32;;;;;;;9.43;8.53;;;;;;;16.87;100.00;100433.78;4990453;28;20701;-66
2023/06/25 02:42:57;;;;;;;9.53;8.63;;;;;;;16.84;100.00;100432.25;5007018;28;20196;-66
2023/06/25 02:45:23;;;;;;;9.30;8.40;;;;;;;16.86;100.00;100432.97;4996483;28;20554;-65
2023/06/25 02:47:49;;;;;;;10.10;9.10;;;;;;;16.86;100.00;100430.38;4995974;28;20179;-65
2023/06/25 02:50:14;;;;;;;11.90;9.07;;;;;;;16.85;100.00;100422.69;4988167;28;20175;-65
2023/06/25 02:52:40;;;;;;;11.03;9.27;;;;;;;16.89;100.00;100424.13;5007900;28;20640;-65
2023/06/25 02:55:06;;;;;;;11.13;8.90;;;;;;;16.88;100.00;100419.84;4993857;28;20195;-66
2023/06/25 02:57:32;;;;;;;10.33;9.43;;;;;;;16.85;100.00;100425.31;4994815;28;20261;-65
2023/06/25 02:59:58;;;;;;;9.50;8.60;;;;;;;16.84;100.00;100428.84;4994610;28;20191;-66
2023/06/25 03:02:23;;;;;;;9.93;8.97;;;;;;;16.80;100.00;100427.44;4974718;28;20613;-65
2023/06/25 03:04:48;;;;;;;10.47;8.93;;;;;;;16.78;100.00;100427.50;4996745;28;20266;-66
2023/06/25 03:07:14;;;;;;;9.70;8.80;;;;;;;16.75;100.00;100422.56;5014224;28;20590;-66
2023/06/25 03:09:39;;;;;;;9.87;8.97;;;;;;;16.71;100.00;100424.56;4994793;28;20661;-66
2023/06/25 03:12:05;;;;;;;9.37;8.37;;;;;;;16.68;100.00;100419.59;4987625;28;20289;-65
2023/06/25 03:14:30;;;;;;;9.60;8.70;;;;;;;16.68;100.00;100424.78;4992906;28;20175;-65
2023/06/25 03:16:56;;;;;;;9.17;8.27;;;;;;;16.65;100.00;100422.44;4998620;28;20226;-65
2023/06/25 03:19:21;;;;;;;9.97;8.53;;;;;;;16.66;100.00;100426.69;5013250;28;20634;-65
2023/06/25 03:21:47;;;;;;;10.50;9.50;;;;;;;16.62;100.00;100418.28;5016850;28;20226;-66
2023/06/25 03:24:12;;;;;;;9.50;8.67;;;;;;;16.59;100.00;100425.47;5009014;28;20254;-66
2023/06/25 03:26:37;;;;;;;11.57;8.27;;;;;;;16.68;100.00;100424.78;4994029;28;20239;-65
2023/06/25 03:29:03;;;;;;;9.23;8.33;;;;;;;16.62;100.00;100417.44;5007060;28;20184;-65
2023/06/25 03:31:28;;;;;;;9.00;8.20;;;;;;;16.64;100.00;100419.97;4974938;28;20238;-65
2023/06/25 03:33:53;;;;;;;8.90;8.10;;;;;;;16.63;100.00;100416.50;4998685;28;20243;-65
2023/06/25 03:36:19;;;;;;;9.87;8.23;;;;;;;16.61;100.00;100411.44;5003257;28;20212;-66
2023/06/25 03:38:44;;;;;;;9.10;8.20;;;;;;;16.55;100.00;100411.91;4982779;28;20800;-65
2023/06/25 03:41:09;;;;;;;9.43;8.60;;;;;;;16.58;100.00;100411.69;4985251;28;20301;-66
2023/06/25 03:43:34;;;;;;;9.73;8.80;;;;;;;16.61;100.00;100413.22;5000146;28;20214;-66
2023/06/25 03:46:00;;;;;;;9.53;8.67;;;;;;;16.60;100.00;100408.97;4993929;28;20282;-66
2023/06/25 03:48:25;;;;;;;9.53;8.60;;;;;;;16.64;100.00;100414.75;5011505;28;20237;-66
2023/06/25 03:50:50;;;;;;;10.40;8.00;;;;;;;16.60;100.00;100414.97;5009411;28;20234;-66
2023/06/25 03:53:20;;;;;;;8.77;7.97;;;;;;;16.70;100.00;100412.50;5021765;28;20253;-66
2023/06/25 03:55:45;;;;;;;9.20;8.30;;;;;;;16.82;100.00;100413.38;5012535;28;20208;-65
2023/06/25 03:58:11;;;;;;;9.33;8.40;;;;;;;16.91;100.00;100414.44;5012726;28;20198;-65
2023/06/25 04:00:36;;;;;;;9.33;8.23;;;;;;;17.02;100.00;100408.47;5007203;28;20340;-66
2023/06/25 04:03:01;;;;;;;9.97;8.97;;;;;;;17.07;100.00;100401.94;4996394;28;20528;-66
2023/06/25 04:05:27;;;;;;;9.83;8.80;;;;;;;16.99;100.00;100406.91;5009532;28;20669;-66
2023/06/25 04:07:52;;;;;;;9.90;8.60;;;;;;;17.07;100.00;100401.13;5000320;28;20199;-66
2023/06/25 04:10:17;;;;;;;9.37;8.23;;;;;;;17.18;100.00;100401.13;4990344;28;20217;-66
2023/06/25 04:12:42;;;;;;;9.33;8.27;;;;;;;17.19;100.00;100404.53;5026147;28;20203;-67
2023/06/25 04:15:08;;;;;;;8.53;7.73;;;;;;;17.28;100.00;100414.25;5011917;28;20183;-66
2023/06/25 04:17:34;;;;;;;9.13;8.00;;;;;;;17.37;100.00;100405.69;5012644;28;20211;-65
2023/06/25 04:19:59;;;;;;;8.83;7.93;;;;;;;17.45;100.00;100402.50;5012158;28;20179;-65
2023/06/25 04:22:24;;;;;;;8.43;7.40;;;;;;;17.48;100.00;100399.66;5017331;28;20236;-65
2023/06/25 04:24:49;;;;;;;9.73;7.60;;;;;;;17.57;100.00;100403.31;5011149;28;20713;-66
2023/06/25 04:27:15;;;;;;;9.43;8.53;;;;;;;17.66;100.00;100400.00;5012377;28;20230;-66
2023/06/25 04:29:40;;;;;;;13.93;8.13;;;;;;;17.78;100.00;100399.97;4994701;28;20206;-66
2023/06/25 04:32:06;;;;;;;10.53;8.37;;;;;;;17.84;100.00;100396.84;4998230;28;20326;-66
2023/06/25 04:34:31;;;;;;;10.00;8.00;;;;;;;17.91;100.00;100401.44;4990895;28;20544;-66
2023/06/25 04:36:57;;;;;;;9.40;8.50;;;;;;;18.01;100.00;100400.72;4989726;28;20198;-66
2023/06/25 04:39:22;;;;;;;14.27;8.57;;;;;;;18.11;100.00;100401.63;4991017;28;20191;-66
2023/06/25 04:41:48;;;;;;;10.63;8.20;;;;;;;18.22;100.00;100398.97;4996452;28;20311;-66
2023/06/25 04:44:13;;;;;;;14.30;9.00;;;;;;;18.38;100.00;100398.53;5010995;28;20189;-63
2023/06/25 04:46:38;;;;;;;9.57;8.43;;;;;;;18.69;100.00;100393.38;5004473;28;20180;-63
2023/06/25 04:49:03;;;;;;;9.27;8.37;;;;;;;18.91;100.00;100390.75;5000335;28;20190;-64
2023/06/25 04:51:29;;;;;;;12.10;8.67;;;;;;;19.01;100.00;100400.28;4993683;28;20235;-64
2023/06/25 04:53:54;;;;;;;8.60;7.80;;;;;;;19.13;100.00;100397.56;4992816;28;20203;-64
2023/06/25 04:56:19;;;;;;;11.77;8.27;;;;;;;18.97;100.00;100400.66;4991913;28;20592;-64
2023/06/25 04:58:45;;;;;;;10.67;7.83;;;;;;;19.07;100.00;100406.72;4992364;28;20310;-64
2023/06/25 05:01:10;;;;;;;8.43;7.73;;;;;;;19.31;100.00;100402.97;4991256;28;20607;-64
2023/06/25 05:03:35;;;;;;;10.23;9.10;;;;;;;19.46;100.00;100399.03;4994493;28;20750;-64
2023/06/25 05:06:00;;;;;;;10.77;8.83;;;;;;;19.71;100.00;100404.69;4992285;28;20278;-63
2023/06/25 05:08:26;;;;;;;10.80;8.73;;;;;;;19.98;100.00;100411.88;5009178;28;20669;-62
2023/06/25 05:10:51;;;;;;;9.83;8.80;;;;;;;20.24;100.00;100415.72;5008201;28;20236;-63
2023/06/25 05:13:16;;;;;;;8.97;8.07;;;;;;;20.43;100.00;100414.88;5020428;28;20736;-62
2023/06/25 05:15:41;;;;;;;9.23;7.90;;;;;;;20.68;100.00;100409.97;5011501;28;20262;-64
2023/06/25 05:18:08;;;;;;;9.13;8.23;;;;;;;20.88;100.00;100401.16;5011388;28;20202;-63
2023/06/25 05:20:35;;;;;;;8.93;7.90;;;;;;;21.01;100.00;100406.06;5005569;28;20234;-64
2023/06/25 05:23:06;;;;;;;10.43;8.87;;;;;;;20.84;100.00;100401.56;5022179;28;20186;-64
2023/06/25 05:25:32;;;;;;;8.73;7.93;;;;;;;20.88;100.00;100403.75;4997791;28;20337;-63
2023/06/25 05:27:58;;;;;;;9.67;8.40;;;;;;;21.09;100.00;100405.34;4992301;28;20298;-63
2023/06/25 05:30:24;;;;;;;9.17;8.03;;;;;;;20.96;100.00;100405.66;4984518;28;20226;-63
2023/06/25 05:32:49;;;;;;;8.80;7.90;;;;;;;21.10;100.00;100412.22;5004215;28;20222;-63
2023/06/25 05:35:14;;;;;;;10.07;7.00;;;;;;;21.24;100.00;100409.09;4991662;28;20183;-62
2023/06/25 05:37:40;;;;;;;9.37;7.47;;;;;;;21.59;100.00;100410.19;4991751;28;20630;-63
2023/06/25 05:40:06;;;;;;;8.00;7.30;;;;;;;22.09;100.00;100408.00;4983091;28;20238;-64
2023/06/25 05:42:31;;;;;;;11.47;7.17;;;;;;;22.12;100.00;100410.31;5006755;28;20171;-63
2023/06/25 05:44:56;;;;;;;7.67;6.97;;;;;;;22.24;100.00;100403.88;4992047;28;20595;-63
2023/06/25 05:47:22;;;;;;;6.67;5.90;;;;;;;22.55;100.00;100407.84;4992606;28;20219;-64
2023/06/25 05:49:47;;;;;;;8.40;6.00;;;;;;;22.87;100.00;100407.25;4992492;28;20179;-63
2023/06/25 05:52:12;;;;;;;7.73;6.37;;;;;;;23.02;96.18;100411.88;4996754;28;20230;-63
2023/06/25 05:54:37;;;;;;;7.87;6.23;;;;;;;23.35;94.61;100418.09;4991544;28;20279;-62
2023/06/25 05:57:03;;;;;;;6.27;5.57;;;;;;;23.51;92.44;100413.88;4991991;28;20250;-63
2023/06/25 05:59:28;;;;;;;6.07;5.47;;;;;;;23.51;93.97;100419.13;4992068;28;20234;-63
2023/06/25 06:01:54;;;;;;;5.73;5.23;;;;;;;23.78;90.92;100418.03;4996071;28;20692;-63
2023/06/25 06:04:19;;;;;;;5.70;5.20;;;;;;;23.97;88.81;100422.16;4992839;28;20183;-63
2023/06/25 06:06:44;;;;;;;6.10;5.50;;;;;;;24.46;84.45;100420.50;4999892;28;20191;-69
2023/06/25 06:09:09;;;;;;;5.07;4.63;;;;;;;24.89;80.76;100417.63;4998410;28;20262;-70
2023/06/25 06:11:35;;;;;;;5.73;4.60;;;;;;;26.46;71.12;100421.91;4997144;28;20241;-70
2023/06/25 06:14:00;;;;;;;6.55;5.05;;;;;;;26.82;65.02;100424.69;4998640;28;20187;-71
2023/06/25 06:16:25;;;;;;;4.90;4.40;;;;;;;27.49;60.15;100422.03;4994728;28;20275;-70
2023/06/25 06:18:50;;;;;;;4.82;3.90;;;;;;;27.11;64.09;100425.63;4994002;28;20248;-71
2023/06/25 06:21:16;;;;;;;5.10;4.70;;;;;;;27.63;58.47;100425.63;4997005;28;20214;-72
2023/06/25 06:23:41;;;;;;;6.82;4.80;;;;;;;28.38;53.39;100433.19;5003548;28;20226;-71
2023/06/25 06:26:06;;;;;;;6.63;4.25;;;;;;;29.18;47.42;100440.78;4998129;28;20222;-71
2023/06/25 06:28:32;;;;;;;4.55;4.15;;;;;;;29.12;47.82;100434.44;4995908;28;20571;-71
2023/06/25 06:30:57;;;;;;;6.20;4.45;;;;;;;28.72;47.45;100435.06;4988206;28;20230;-70
2023/06/25 06:33:22;;;;;;;4.65;4.28;;;;;;;29.27;46.17;100428.97;5001814;28;20187;-70
2023/06/25 06:35:47;;;;;;;4.93;3.92;;;;;;;29.39;45.80;100431.91;5008670;28;20171;-68
2023/06/25 06:38:13;;;;;;;4.28;3.88;;;;;;;28.64;47.70;100425.44;4999619;28;20207;-70
2023/06/25 06:40:38;;;;;;;4.22;3.92;;;;;;;28.12;52.61;100421.41;5001015;28;20232;-70
2023/06/25 06:43:03;;;;;;;5.15;4.53;;;;;;;29.01;48.73;100433.16;5023539;28;20182;-69
2023/06/25 06:45:28;;;;;;;5.03;4.53;;;;;;;29.22;46.02;100431.41;4993947;28;20180;-69
2023/06/25 06:47:54;;;;;;;4.18;3.88;;;;;;;30.06;44.80;100432.81;4994472;28;20179;-69
2023/06/25 06:50:19;;;;;;;5.97;4.30;;;;;;;28.80;46.11;100437.56;4997482;28;20607;-69
2023/06/25 06:52:45;;;;;;;4.35;3.95;;;;;;;29.86;43.77;100427.47;5005694;28;20209;-67
2023/06/25 06:55:10;;;;;;;4.45;4.05;;;;;;;31.94;38.69;100431.28;5007999;28;20272;-68
2023/06/25 06:57:36;;;;;;;4.07;3.78;;;;;;;31.93;37.49;100430.50;5011210;28;20221;-68
2023/06/25 07:00:03;;;;;;;5.22;4.38;;;;;;;31.81;38.03;100429.56;5006578;28;20183;-67
2023/06/25 07:02:29;;;;;;;7.63;4.55;;;;;;;32.59;36.79;100430.09;4988598;28;20273;-70
2023/06/25 07:04:54;;;;;;;4.38;3.97;;;;;;;33.19;35.06;100439.25;5003637;28;20266;-69
2023/06/25 07:07:19;;;;;;;4.10;3.80;;;;;;;32.93;34.94;100436.69;5003031;28;20646;-68
2023/06/25 07:09:52;;;;;;;6.78;4.10;;;;;;;32.49;35.47;100434.09;4997084;28;20265;-68
2023/06/25 07:12:18;;;;;;;4.78;3.83;;;;;;;31.25;39.24;100439.06;4973350;28;20366;-68
2023/06/25 07:14:43;;;;;;;5.65;4.88;;;;;;;30.70;40.46;100434.97;4990432;28;20263;-68
2023/06/25 07:17:08;;;;;;;7.10;4.22;;;;;;;32.66;37.17;100436.16;4995540;28;20316;-68
2023/06/25 07:19:33;;;;;;;6.43;4.68;;;;;;;31.80;37.88;100439.38;5009283;28;20260;-68
2023/06/25 07:21:59;;;;;;;4.20;3.90;;;;;;;32.71;36.71;100438.16;4975308;28;20236;-68
2023/06/25 07:24:24;;;;;;;4.30;3.90;;;;;;;32.54;37.18;100437.91;4991272;28;20631;-68
2023/06/25 07:26:49;;;;;;;6.90;4.18;;;;;;;30.84;40.59;100428.63;4993893;28;20266;-68
2023/06/25 07:29:15;;;;;;;6.35;4.75;;;;;;;32.19;38.00;100425.97;4992261;28;20644;-68
2023/06/25 07:31:40;;;;;;;6.07;4.20;;;;;;;31.90;38.23;100435.44;4976075;28;20645;-68
2023/06/25 07:34:05;;;;;;;5.65;4.32;;;;;;;32.18;37.94;100433.13;4983694;28;20277;-69
2023/06/25 07:36:30;;;;;;;4.72;3.90;;;;;;;32.64;35.13;100433.72;4993473;28;20203;-69
2023/06/25 07:38:57;;;;;;;4.60;4.20;;;;;;;34.15;32.91;100447.25;4993628;28;20176;-68
2023/06/25 07:41:22;;;;;;;5.35;4.20;;;;;;;32.37;34.41;100437.69;4994625;28;20292;-69
2023/06/25 07:43:48;;;;;;;4.60;4.20;;;;;;;33.38;34.40;100437.34;5000038;28;20191;-68
2023/06/25 07:46:13;;;;;;;4.47;4.13;;;;;;;35.91;29.83;100435.44;5005448;28;20250;-68
2023/06/25 07:48:39;;;;;;;4.93;4.35;;;;;;;35.67;29.95;100440.09;5001261;28;20179;-68
2023/06/25 07:51:04;;;;;;;5.10;4.43;;;;;;;33.21;34.52;100434.50;5010694;28;20237;-68
2023/06/25 07:53:29;;;;;;;4.82;4.15;;;;;;;33.22;34.41;100436.94;4994383;28;20891;-67
2023/06/25 07:55:54;;;;;;;4.30;3.90;;;;;;;34.48;31.68;100432.50;4993455;28;20194;-68
2023/06/25 07:58:20;;;;;;;7.20;4.07;;;;;;;35.25;30.58;100433.22;4993763;28;20214;-67
2023/06/25 08:00:45;;;;;;;4.68;4.28;;;;;;;35.03;29.75;100439.25;4997705;28;20683;-68
2023/06/25 08:03:10;;;;;;;4.70;4.30;;;;;;;34.82;29.36;100442.53;4998160;28;20267;-69
2023/06/25 08:05:35;;;;;;;4.50;4.10;;;;;;;34.93;28.80;100428.38;5002004;28;20187;-69
2023/06/25 08:08:01;;;;;;;7.10;3.80;;;;;;;35.35;28.38;100427.22;5009044;28;20705;-69
2023/06/25 08:10:26;;;;;;;4.88;4.45;;;;;;;34.82;29.26;100423.81;4996585;28;20237;-68
2023/06/25 08:12:54;;;;;;;4.38;4.07;;;;;;;36.65;27.52;100420.88;4991929;28;20413;-68
2023/06/25 08:15:20;;;;;;;4.40;4.00;;;;;;;36.96;26.81;100423.13;4991389;28;20198;-69
2023/06/25 08:17:48;;;;;;;4.28;3.88;;;;;;;35.53;28.54;100416.34;4993001;28;20199;-68
2023/06/25 08:20:13;;;;;;;4.55;4.10;;;;;;;35.47;28.05;100421.84;4984139;28;20191;-68
2023/06/25 08:22:39;;;;;;;4.30;4.00;;;;;;;33.92;29.33;100418.69;4994359;28;20182;-68
2023/06/25 08:25:19;;;;;;;4.63;4.22;;;;;;;35.53;27.46;100420.91;5002909;28;20693;-68
2023/06/25 08:27:44;;;;;;;3.95;3.65;;;;;;;35.74;27.49;100413.16;4996842;28;20218;-68
2023/06/25 08:30:10;;;;;;;4.20;3.90;;;;;;;36.24;26.60;100415.00;5003066;28;20217;-69
2023/06/25 08:32:35;;;;;;;4.25;3.95;;;;;;;35.65;26.47;100416.28;5025842;28;20557;-69
2023/06/25 08:35:01;;;;;;;4.65;4.28;;;;;;;36.86;25.95;100415.78;5010138;28;20183;-69
2023/06/25 08:37:26;;;;;;;5.70;4.28;;;;;;;36.17;28.01;100417.88;5008041;28;20205;-69
2023/06/25 08:39:51;;;;;;;4.35;3.95;;;;;;;37.47;26.16;100414.78;5012335;28;20704;-68
2023/06/25 08:42:16;;;;;;;4.70;3.92;;;;;;;38.10;24.11;100423.00;4999348;28;20222;-68
2023/06/25 08:44:42;;;;;;;4.78;4.07;;;;;;;36.90;24.65;100419.59;5003080;28;20182;-68
2023/06/25 08:47:09;;;;;;;4.07;3.78;;;;;;;35.74;26.20;100413.16;5011480;28;20190;-68
2023/06/25 08:49:35;;;;;;;4.70;3.97;;;;;;;36.38;25.21;100409.31;5012158;28;20193;-68
2023/06/25 08:52:01;;;;;;;4.32;3.92;;;;;;;37.69;24.20;100419.25;4994697;28;20281;-69
2023/06/25 08:54:27;;;;;;;6.05;3.90;;;;;;;39.02;22.03;100415.59;4982522;28;20233;-69
2023/06/25 08:56:52;;;;;;;4.15;3.80;;;;;;;38.51;22.50;100411.69;5005248;28;20226;-68
2023/06/25 08:59:17;;;;;;;3.47;3.22;;;;;;;38.24;21.40;100412.63;4992576;28;20647;-68
2023/06/25 09:01:43;;;;;;;4.80;3.50;;;;;;;36.87;23.91;100411.25;4994931;28;20777;-69
2023/06/25 09:04:08;;;;;;;4.43;4.03;;;;;;;33.92;25.40;100405.38;4990597;28;20202;-68
2023/06/25 09:06:40;;;;;;;6.85;6.20;;;;;;;35.66;24.46;100401.84;4995185;28;20650;-69
2023/06/25 09:09:06;;;;;;;7.32;5.18;;;;;;;35.73;25.25;100396.31;5011695;28;20194;-68
2023/06/25 09:11:31;;;;;;;4.47;3.97;;;;;;;38.05;22.29;100398.81;5003884;28;20310;-68
2023/06/25 09:13:58;;;;;;;3.80;3.50;;;;;;;38.65;21.46;100401.22;4991002;28;20683;-68
2023/06/25 09:16:23;;;;;;;3.50;3.30;;;;;;;37.44;21.63;100404.56;4991532;28;20643;-68
2023/06/25 09:18:49;;;;;;;3.72;2.92;;;;;;;36.65;22.26;100402.13;4995281;28;20191;-68
2023/06/25 09:21:14;;;;;;;4.13;3.83;;;;;;;36.65;22.66;100385.25;5010742;28;20261;-68
2023/06/25 09:23:39;;;;;;;3.80;3.50;;;;;;;36.98;21.83;100392.34;5001907;28;20607;-68
2023/06/25 09:26:09;;;;;;;3.78;3.47;;;;;;;37.68;21.65;100385.44;4991710;28;20245;-69
2023/06/25 09:28:45;;;;;;;4.10;3.80;;;;;;;37.53;21.80;100388.81;5007676;28;20266;-67
2023/06/25 09:31:17;;;;;;;4.05;3.75;;;;;;;38.11;22.43;100378.97;5009850;28;20252;-67
2023/06/25 09:33:49;;;;;;;3.70;3.40;;;;;;;38.95;21.19;100372.03;4992126;28;20191;-69
2023/06/25 09:36:15;;;;;;;4.28;3.88;;;;;;;37.60;21.83;100371.41;4990338;28;20187;-69
2023/06/25 09:38:44;;;;;;;3.55;3.25;;;;;;;36.50;23.23;100370.63;4992048;28;20520;-68
2023/06/25 09:41:10;;;;;;;3.42;3.03;;;;;;;38.70;21.91;100368.19;4994899;28;20226;-69
2023/06/25 09:43:36;;;;;;;3.65;3.10;;;;;;;40.76;18.93;100377.84;5002236;28;20273;-69
2023/06/25 09:46:02;;;;;;;4.93;3.10;;;;;;;40.08;19.45;100379.22;4994235;28;20187;-69
2023/06/25 09:48:28;;;;;;;3.30;3.10;;;;;;;39.22;20.97;100366.41;4994302;28;20206;-69
2023/06/25 09:50:56;;;;;;;3.03;2.83;;;;;;;40.03;20.50;100363.91;4992951;28;20682;-69
2023/06/25 09:53:23;;;;;;;4.47;3.03;;;;;;;37.92;22.01;100357.16;5005246;28;20662;-69
2023/06/25 09:55:49;;;;;;;3.60;3.30;;;;;;;36.92;22.78;100358.50;4997359;28;20653;-69
2023/06/25 09:58:17;;;;;;;4.30;3.67;;;;;;;39.76;20.97;100358.84;4984787;28;20702;-69
2023/06/25 10:00:42;;;;;;;3.78;3.40;;;;;;;37.67;21.68;100360.44;4991686;28;20234;-69
2023/06/25 10:03:10;;;;;;;3.80;3.30;;;;;;;39.85;20.47;100349.94;5005505;28;20515;-69
2023/06/25 10:05:37;;;;;;;3.30;3.08;;;;;;;36.33;22.62;100356.47;4994984;28;20209;-69
2023/06/25 10:08:03;;;;;;;4.35;3.47;;;;;;;36.71;22.51;100354.78;4995196;28;20196;-68
2023/06/25 10:10:29;;;;;;;4.20;3.80;;;;;;;36.42;23.04;100352.34;4992058;28;20240;-70
2023/06/25 10:12:54;;;;;;;3.72;3.42;;;;;;;38.19;21.05;100345.44;5013184;28;20674;-68
2023/06/25 10:15:31;;;;;;;7.03;3.78;;;;;;;38.85;20.54;100343.25;5012830;28;20190;-69
2023/06/25 10:18:01;;;;;;;3.88;3.53;;;;;;;39.19;20.08;100348.91;5013690;28;20213;-69
2023/06/25 10:20:34;;;;;;;4.15;3.75;;;;;;;40.31;20.09;100342.78;5006820;28;20230;-69
2023/06/25 10:23:27;;;;;;;4.00;3.60;;;;;;;41.41;19.50;100345.25;5011940;28;20221;-69
2023/06/25 10:25:53;;;;;;;4.07;3.78;;;;;;;37.70;21.16;100338.47;5010626;28;20203;-69
2023/06/25 10:28:19;;;;;;;4.47;4.07;;;;;;;38.37;20.87;100327.28;5013839;28;20190;-69
2023/06/25 10:30:48;;;;;;;5.97;3.40;;;;;;;39.79;21.57;100331.38;5008411;28;20226;-69
2023/06/25 10:33:15;;;;;;;4.13;3.65;;;;;;;40.14;20.09;100326.97;5012419;28;20230;-70
2023/06/25 10:35:42;;;;;;;4.03;3.70;;;;;;;40.16;19.86;100320.22;5012123;28;20286;-72
2023/06/25 10:38:08;;;;;;;4.15;3.85;;;;;;;39.62;20.80;100320.91;5011293;28;20199;-69
2023/06/25 10:40:38;;;;;;;6.82;4.35;;;;;;;38.88;21.87;100318.53;5005762;28;20300;-68
2023/06/25 10:43:03;;;;;;;4.88;3.65;;;;;;;38.99;20.49;100322.84;5011990;28;20183;-68
2023/06/25 10:45:30;;;;;;;6.00;4.00;;;;;;;38.34;21.80;100309.78;5011044;28;20725;-68
2023/06/25 10:48:08;;;;;;;4.30;4.00;;;;;;;35.44;24.54;100294.78;5012856;28;20646;-69
2023/06/25 10:50:35;;;;;;;4.78;4.38;;;;;;;34.24;26.40;100288.34;5002945;28;20316;-69
2023/06/25 10:53:01;;;;;;;5.43;4.55;;;;;;;32.78;27.53;100293.22;5023158;28;20554;-70
2023/06/25 10:55:26;;;;;;;4.97;4.32;;;;;;;31.27;29.63;100285.56;4999642;28;20182;-69
2023/06/25 10:57:54;;;;;;;5.05;4.60;;;;;;;30.69;30.27;100274.09;5006843;28;20215;-69
2023/06/25 11:00:24;;;;;;;5.75;4.28;;;;;;;30.91;31.33;100269.22;4991152;28;20646;-69
2023/06/25 11:02:54;;;;;;;4.95;4.45;;;;;;;30.87;30.89;100260.91;5023942;28;20190;-69
2023/06/25 11:05:21;;;;;;;7.03;4.30;;;;;;;29.74;32.51;100257.59;5004231;28;20610;-68
2023/06/25 11:07:54;;;;;;;4.95;4.50;;;;;;;29.94;32.55;100262.09;4992947;28;20200;-68
2023/06/25 11:10:22;;;;;;;4.78;4.38;;;;;;;30.14;32.18;100258.56;4986399;28;20193;-68
2023/06/25 11:12:47;;;;;;;5.10;4.70;;;;;;;30.28;33.17;100254.84;5006651;28;20215;-67
2023/06/25 11:15:12;;;;;;;5.68;4.97;;;;;;;30.46;31.79;100256.00;4984888;28;20189;-69